createdAt,value
2023-03-21T00:00:12.806Z,99.99
2023-03-21T00:01:12.096Z,90.30
2023-03-21T00:02:11.784Z,89.62
2023-03-21T00:03:11.757Z,89.31
2023-03-21T00:04:11.934Z,89.00
2023-03-21T00:05:15.796Z,88.59
2023-03-21T00:06:11.727Z,99.99
2023-03-21T00:07:11.827Z,88.80
2023-03-21T00:08:11.708Z,89.41
2023-03-21T00:09:11.693Z,99.99
2023-03-21T00:10:16.623Z,89.11
2023-03-21T00:11:12.694Z,89.52
2023-03-21T00:12:11.668Z,89.83
2023-03-21T00:13:11.654Z,90.44
2023-03-21T00:14:11.745Z,90.61
2023-03-21T00:15:11.638Z,90.75
2023-03-21T00:17:12.661Z,90.55
2023-03-21T00:18:11.598Z,90.55
2023-03-21T00:19:11.592Z,89.62
2023-03-21T00:20:11.579Z,90.03
2023-03-21T00:22:11.561Z,89.52
2023-03-21T00:23:11.552Z,89.21
2023-03-21T00:24:11.542Z,88.59
2023-03-21T00:25:11.531Z,88.69
2023-03-21T00:26:11.516Z,87.97
2023-03-21T00:27:38.372Z,87.87
2023-03-21T00:28:12.527Z,88.07
2023-03-21T00:29:11.490Z,88.69
2023-03-21T00:30:11.516Z,89.11
2023-03-21T00:31:11.469Z,89.62
2023-03-21T00:32:11.458Z,89.72
2023-03-21T00:33:22.021Z,89.72
2023-03-21T00:35:48.010Z,90.55
2023-03-21T00:36:12.971Z,91.37
2023-03-21T00:37:11.408Z,91.88
2023-03-21T00:38:11.406Z,91.78
2023-03-21T00:39:11.383Z,91.88
2023-03-21T00:40:22.992Z,91.78
2023-03-21T00:41:23.297Z,90.85
2023-03-21T00:42:12.371Z,90.34
2023-03-21T00:43:11.346Z,89.52
2023-03-21T00:44:11.339Z,89.41
2023-03-21T00:45:11.327Z,89.05
2023-03-21T00:46:11.394Z,87.09
2023-03-21T00:47:11.360Z,86.57
2023-03-21T00:48:11.326Z,86.57
2023-03-21T00:49:11.305Z,87.50
2023-03-21T00:50:11.269Z,87.81
2023-03-21T00:51:11.413Z,87.19
2023-03-21T00:52:27.512Z,86.47
2023-03-21T00:53:12.260Z,85.96
2023-03-21T00:54:11.232Z,85.96
2023-03-21T00:55:11.221Z,86.26
2023-03-21T00:56:11.212Z,86.16
2023-03-21T00:57:11.200Z,86.37
2023-03-21T00:58:11.190Z,87.19
2023-03-21T00:59:11.178Z,87.09
2023-03-21T01:00:11.180Z,87.40
2023-03-21T01:01:11.228Z,86.78
2023-03-21T01:02:11.202Z,86.78
2023-03-21T01:03:23.207Z,85.96
2023-03-21T01:04:12.161Z,85.96
2023-03-21T01:05:11.147Z,86.78
2023-03-21T01:06:11.106Z,87.19
2023-03-21T01:07:11.116Z,87.50
2023-03-21T01:08:25.121Z,88.94
2023-03-21T01:09:12.097Z,90.79
2023-03-21T01:10:11.067Z,92.13
2023-03-21T01:11:11.056Z,93.16
2023-03-21T01:12:11.050Z,93.06
2023-03-21T01:13:11.036Z,92.96
2023-03-21T01:14:21.966Z,92.54
2023-03-21T01:15:12.031Z,92.40
2023-03-21T01:17:10.993Z,92.81
2023-03-21T01:18:10.983Z,93.84
2023-03-21T01:19:22.133Z,94.15
2023-03-21T01:20:12.086Z,93.84
2023-03-21T01:21:10.976Z,93.53
2023-03-21T01:22:10.939Z,99.99
2023-03-21T01:23:10.931Z,91.51
2023-03-21T01:24:10.919Z,90.59
2023-03-21T01:25:22.032Z,90.38
2023-03-21T01:26:11.928Z,90.49
2023-03-21T01:27:10.894Z,91.41
2023-03-21T01:28:10.880Z,92.38
2023-03-21T01:29:10.869Z,93.41
2023-03-21T01:30:19.122Z,93.51
2023-03-21T01:31:11.920Z,94.23
2023-03-21T01:32:10.844Z,94.95
2023-03-21T01:33:10.827Z,94.75
2023-03-21T01:34:10.818Z,94.75
2023-03-21T01:35:10.812Z,94.54
2023-03-21T01:36:13.558Z,94.34
2023-03-21T01:37:10.833Z,94.23
2023-03-21T01:38:10.776Z,93.20
2023-03-21T01:39:10.768Z,92.73
2023-03-21T01:40:10.755Z,91.60
2023-03-21T01:41:19.245Z,90.67
2023-03-21T01:42:11.759Z,88.51
2023-03-21T01:43:10.726Z,86.45
2023-03-21T01:44:10.721Z,85.72
2023-03-21T01:45:10.707Z,85.52
2023-03-21T01:46:10.756Z,85.31
2023-03-21T01:47:12.598Z,87.06
2023-03-21T01:48:10.718Z,88.09
2023-03-21T01:49:10.668Z,89.02
2023-03-21T01:50:10.655Z,90.67
2023-03-21T01:51:10.645Z,93.93
2023-03-21T01:52:15.238Z,94.34
2023-03-21T01:53:11.671Z,94.23
2023-03-21T01:54:10.615Z,93.62
2023-03-21T01:55:10.606Z,99.99
2023-03-21T01:56:10.595Z,94.03
2023-03-21T01:57:10.583Z,93.00
2023-03-21T01:58:10.574Z,92.38
2023-03-21T01:59:10.560Z,92.07
2023-03-21T02:00:10.554Z,92.79
2023-03-21T02:01:10.679Z,93.20
2023-03-21T02:02:10.532Z,92.69
2023-03-21T02:03:15.338Z,91.97
2023-03-21T02:04:11.567Z,90.73
2023-03-21T02:05:10.503Z,90.94
2023-03-21T02:06:10.493Z,91.14
2023-03-21T02:07:10.483Z,91.04
2023-03-21T02:08:10.477Z,91.04
2023-03-21T02:09:10.488Z,91.55
2023-03-21T02:10:10.461Z,92.18
2023-03-21T02:11:10.438Z,92.28
2023-03-21T02:12:10.465Z,92.48
2023-03-21T02:13:10.421Z,92.90
2023-03-21T02:14:13.253Z,92.48
2023-03-21T02:15:10.397Z,99.99
2023-03-21T02:16:10.391Z,92.38
2023-03-21T02:17:10.379Z,91.46
2023-03-21T02:18:10.377Z,91.25
2023-03-21T02:19:11.533Z,91.29
2023-03-21T02:20:10.354Z,90.05
2023-03-21T02:21:10.337Z,90.63
2023-03-21T02:22:10.326Z,91.76
2023-03-21T02:23:10.319Z,90.53
2023-03-21T02:24:10.312Z,91.66
2023-03-21T02:25:21.368Z,99.99
2023-03-21T02:26:11.313Z,93.41
2023-03-21T02:27:10.291Z,93.51
2023-03-21T02:28:10.268Z,93.51
2023-03-21T02:29:10.258Z,93.26
2023-03-21T02:30:14.851Z,95.26
2023-03-21T02:31:11.335Z,94.44
2023-03-21T02:32:20.220Z,94.75
2023-03-21T02:33:11.258Z,95.47
2023-03-21T02:34:10.222Z,94.38
2023-03-21T02:35:10.201Z,92.32
2023-03-21T02:36:14.225Z,92.12
2023-03-21T02:37:10.186Z,92.63
2023-03-21T02:38:10.166Z,92.12
2023-03-21T02:39:10.160Z,91.54
2023-03-21T02:40:10.147Z,91.33
2023-03-21T02:41:18.360Z,89.37
2023-03-21T02:42:11.144Z,88.03
2023-03-21T02:43:20.864Z,87.31
2023-03-21T02:44:17.129Z,87.00
2023-03-21T02:45:10.113Z,87.21
2023-03-21T02:46:10.260Z,88.45
2023-03-21T02:47:10.402Z,89.58
2023-03-21T02:48:20.289Z,89.68
2023-03-21T02:49:11.116Z,89.00
2023-03-21T02:50:10.094Z,87.04
2023-03-21T02:51:10.075Z,86.12
2023-03-21T02:52:18.563Z,85.29
2023-03-21T02:53:11.040Z,86.05
2023-03-21T02:54:29.936Z,86.63
2023-03-21T02:55:11.022Z,85.43
2023-03-21T02:56:09.986Z,84.46
2023-03-21T02:57:10.028Z,84.36
2023-03-21T02:58:13.103Z,84.57
2023-03-21T02:59:10.017Z,84.88
2023-03-21T03:00:16.125Z,85.39
2023-03-21T03:01:11.002Z,85.39
2023-03-21T03:02:09.941Z,85.29
2023-03-21T03:03:12.719Z,84.57
2023-03-21T03:04:10.959Z,84.30
2023-03-21T03:05:20.472Z,84.19
2023-03-21T03:06:10.911Z,82.03
2023-03-21T03:07:09.880Z,80.51
2023-03-21T03:08:09.870Z,75.87
2023-03-21T03:09:09.861Z,76.87
2023-03-21T03:10:09.849Z,76.56
2023-03-21T03:11:09.844Z,78.62
2023-03-21T03:12:09.828Z,79.14
2023-03-21T03:13:09.848Z,79.65
2023-03-21T03:14:31.462Z,79.65
2023-03-21T03:15:10.813Z,79.14
2023-03-21T03:16:09.835Z,79.34
2023-03-21T03:17:09.778Z,79.14
2023-03-21T03:18:09.772Z,78.52
2023-03-21T03:19:09.761Z,78.00
2023-03-21T03:20:16.265Z,77.90
2023-03-21T03:21:10.757Z,77.28
2023-03-21T03:22:09.727Z,76.35
2023-03-21T03:23:09.718Z,76.56
2023-03-21T03:24:09.703Z,76.77
2023-03-21T03:25:21.233Z,76.77
2023-03-21T03:26:10.709Z,76.14
2023-03-21T03:27:09.677Z,76.94
2023-03-21T03:28:09.668Z,80.54
2023-03-21T03:29:09.681Z,82.09
2023-03-21T03:30:09.639Z,82.34
2023-03-21T03:31:10.615Z,81.20
2023-03-21T03:32:09.701Z,80.17
2023-03-21T03:33:09.610Z,78.52
2023-03-21T03:34:09.600Z,77.90
2023-03-21T03:35:09.607Z,77.49
2023-03-21T03:36:14.835Z,77.49
2023-03-21T03:37:10.596Z,76.94
2023-03-21T03:38:09.556Z,77.97
2023-03-21T03:39:09.553Z,79.00
2023-03-21T03:40:09.539Z,79.21
2023-03-21T03:41:09.532Z,79.72
2023-03-21T03:42:25.369Z,99.99
2023-03-21T03:43:10.529Z,82.85
2023-03-21T03:44:09.547Z,80.89
2023-03-21T03:45:09.513Z,78.83
2023-03-21T03:46:09.496Z,76.87
2023-03-21T03:47:11.809Z,76.77
2023-03-21T03:48:09.485Z,76.25
2023-03-21T03:49:09.452Z,76.25
2023-03-21T03:50:09.439Z,76.04
2023-03-21T03:51:09.427Z,75.94
2023-03-21T03:52:09.418Z,75.42
2023-03-21T03:53:17.579Z,74.73
2023-03-21T03:54:10.416Z,73.67
2023-03-21T03:55:09.385Z,73.57
2023-03-21T03:56:09.374Z,73.26
2023-03-21T03:57:09.362Z,72.25
2023-03-21T03:58:21.337Z,72.43
2023-03-21T03:59:10.422Z,72.77
2023-03-21T04:00:09.333Z,73.26
2023-03-21T04:01:09.358Z,73.15
2023-03-21T04:02:09.410Z,73.26
2023-03-21T04:03:09.379Z,73.87
2023-03-21T04:04:13.181Z,73.67
2023-03-21T04:05:09.439Z,73.91
2023-03-21T04:06:09.277Z,73.46
2023-03-21T04:07:09.269Z,71.95
2023-03-21T04:08:09.262Z,71.40
2023-03-21T04:09:19.212Z,72.02
2023-03-21T04:10:10.254Z,72.98
2023-03-21T04:11:09.225Z,74.01
2023-03-21T04:12:09.215Z,73.60
2023-03-21T04:13:09.210Z,72.46
2023-03-21T04:14:09.199Z,71.95
2023-03-21T04:15:11.018Z,72.15
2023-03-21T04:16:09.205Z,71.95
2023-03-21T04:17:09.193Z,72.36
2023-03-21T04:18:09.157Z,72.05
2023-03-21T04:19:09.142Z,71.67
2023-03-21T04:20:13.937Z,71.46
2023-03-21T04:21:10.146Z,71.67
2023-03-21T04:22:09.115Z,70.53
2023-03-21T04:23:09.127Z,69.92
2023-03-21T04:24:09.097Z,69.50
2023-03-21T04:25:09.089Z,70.81
2023-03-21T04:26:09.080Z,72.46
2023-03-21T04:27:09.072Z,74.12
2023-03-21T04:28:09.062Z,75.11
2023-03-21T04:29:09.044Z,76.04
2023-03-21T04:30:09.038Z,77.28
2023-03-21T04:31:24.155Z,76.97
2023-03-21T04:32:10.099Z,76.87
2023-03-21T04:33:09.029Z,76.70
2023-03-21T04:34:08.991Z,75.76
2023-03-21T04:35:08.979Z,74.63
2023-03-21T04:36:08.992Z,73.53
2023-03-21T04:37:08.957Z,72.19
2023-03-21T04:38:09.049Z,71.67
2023-03-21T04:39:08.937Z,71.26
2023-03-21T04:40:08.926Z,99.99
2023-03-21T04:41:08.926Z,70.43
2023-03-21T04:42:08.907Z,70.84
2023-03-21T04:43:08.899Z,70.30
2023-03-21T04:44:08.893Z,74.90
2023-03-21T04:45:08.881Z,76.70
2023-03-21T04:46:08.902Z,77.69
2023-03-21T04:47:08.858Z,78.55
2023-03-21T04:48:08.869Z,78.55
2023-03-21T04:49:08.856Z,78.45
2023-03-21T04:50:08.829Z,79.07
2023-03-21T04:51:08.836Z,78.52
2023-03-21T04:52:08.806Z,78.52
2023-03-21T04:53:08.801Z,79.34
2023-03-21T04:54:09.857Z,80.99
2023-03-21T04:55:08.773Z,81.82
2023-03-21T04:56:08.760Z,81.82
2023-03-21T04:57:08.766Z,81.82
2023-03-21T04:58:08.738Z,82.13
2023-03-21T04:59:08.733Z,82.13
2023-03-21T05:00:08.722Z,81.82
2023-03-21T05:01:08.821Z,81.20
2023-03-21T05:02:08.698Z,80.82
2023-03-21T05:03:08.691Z,80.31
2023-03-21T05:04:08.734Z,80.21
2023-03-21T05:05:08.691Z,79.69
2023-03-21T05:06:08.654Z,78.59
2023-03-21T05:07:08.647Z,77.45
2023-03-21T05:08:08.634Z,77.25
2023-03-21T05:09:08.626Z,75.70
2023-03-21T05:10:08.620Z,74.98
2023-03-21T05:11:08.601Z,75.18
2023-03-21T05:12:08.599Z,75.39
2023-03-21T05:13:08.594Z,74.56
2023-03-21T05:14:08.586Z,74.08
2023-03-21T05:15:08.566Z,73.12
2023-03-21T05:16:08.549Z,72.29
2023-03-21T05:17:08.540Z,72.22
2023-03-21T05:18:08.537Z,71.71
2023-03-21T05:19:08.520Z,71.67
2023-03-21T05:20:08.509Z,72.08
2023-03-21T05:21:08.530Z,71.67
2023-03-21T05:22:08.494Z,72.19
2023-03-21T05:23:08.491Z,72.50
2023-03-21T05:24:08.471Z,71.77
2023-03-21T05:25:08.459Z,72.29
2023-03-21T05:26:08.447Z,73.22
2023-03-21T05:27:08.438Z,72.91
2023-03-21T05:28:08.424Z,73.32
2023-03-21T05:29:08.417Z,74.46
2023-03-21T05:30:08.427Z,74.56
2023-03-21T05:31:08.548Z,75.29
2023-03-21T05:32:08.393Z,75.29
2023-03-21T05:33:08.378Z,75.49
2023-03-21T05:34:08.368Z,75.80
2023-03-21T05:35:08.362Z,75.49
2023-03-21T05:36:08.369Z,75.08
2023-03-21T05:37:08.357Z,74.08
2023-03-21T05:38:08.326Z,74.35
2023-03-21T05:39:08.314Z,74.98
2023-03-21T05:40:08.306Z,75.80
2023-03-21T05:41:08.302Z,76.11
2023-03-21T05:42:08.280Z,76.01
2023-03-21T05:43:08.284Z,74.04
2023-03-21T05:44:08.268Z,72.71
2023-03-21T05:45:08.253Z,70.74
2023-03-21T05:46:08.289Z,70.43
2023-03-21T05:47:08.229Z,69.50
2023-03-21T05:48:08.467Z,70.12
2023-03-21T05:49:08.208Z,70.33
2023-03-21T05:50:08.199Z,71.56
2023-03-21T05:51:08.190Z,72.50
2023-03-21T05:52:08.177Z,72.60
2023-03-21T05:53:08.195Z,73.22
2023-03-21T05:54:08.164Z,72.71
2023-03-21T05:55:08.152Z,71.77
2023-03-21T05:56:08.142Z,70.84
2023-03-21T05:57:08.127Z,70.22
2023-03-21T05:58:08.119Z,70.12
2023-03-21T05:59:08.109Z,69.92
2023-03-21T06:00:08.100Z,70.64
2023-03-21T06:01:08.088Z,70.91
2023-03-21T06:02:08.076Z,70.91
2023-03-21T06:03:08.068Z,71.77
2023-03-21T06:04:08.140Z,71.02
2023-03-21T06:05:08.047Z,71.43
2023-03-21T06:06:08.042Z,71.74
2023-03-21T06:07:08.030Z,72.36
2023-03-21T06:08:08.024Z,72.46
2023-03-21T06:09:08.038Z,73.19
2023-03-21T06:10:08.001Z,73.19
2023-03-21T06:11:07.992Z,72.98
2023-03-21T06:12:07.981Z,72.36
2023-03-21T06:13:07.983Z,73.60
2023-03-21T06:14:07.972Z,73.91
2023-03-21T06:15:07.951Z,74.18
2023-03-21T06:16:08.087Z,75.53
2023-03-21T06:17:07.927Z,99.99
2023-03-21T06:18:07.926Z,77.59
2023-03-21T06:19:07.904Z,77.49
2023-03-21T06:20:07.896Z,77.90
2023-03-21T06:21:07.885Z,78.90
2023-03-21T06:22:07.880Z,79.62
2023-03-21T06:23:07.866Z,80.75
2023-03-21T06:24:07.857Z,99.99
2023-03-21T06:25:07.867Z,81.89
2023-03-21T06:26:07.837Z,81.99
2023-03-21T06:27:07.828Z,81.68
2023-03-21T06:28:07.815Z,81.17
2023-03-21T06:29:07.807Z,80.85
2023-03-21T06:30:07.796Z,80.44
2023-03-21T06:31:07.861Z,80.54
2023-03-21T06:32:07.774Z,81.75
2023-03-21T06:33:07.763Z,81.12
2023-03-21T06:34:07.753Z,81.12
2023-03-21T06:35:07.743Z,81.75
2023-03-21T06:36:07.775Z,82.57
2023-03-21T06:37:07.727Z,83.50
2023-03-21T06:38:07.709Z,84.08
2023-03-21T06:39:07.700Z,99.99
2023-03-21T06:40:07.690Z,84.28
2023-03-21T06:41:07.711Z,83.87
2023-03-21T06:42:07.677Z,83.56
2023-03-21T06:43:07.662Z,83.66
2023-03-21T06:44:07.656Z,84.08
2023-03-21T06:45:07.637Z,84.28
2023-03-21T06:46:07.635Z,85.52
2023-03-21T06:47:07.755Z,87.27
2023-03-21T06:48:09.367Z,87.34
2023-03-21T06:49:07.596Z,87.23
2023-03-21T06:50:07.591Z,99.99
2023-03-21T06:51:07.579Z,87.09
2023-03-21T06:52:07.573Z,87.13
2023-03-21T06:53:07.575Z,87.50
2023-03-21T06:54:07.551Z,88.33
2023-03-21T06:55:07.539Z,89.05
2023-03-21T06:56:07.534Z,90.34
2023-03-21T06:57:07.543Z,91.31
2023-03-21T06:58:07.512Z,91.31
2023-03-21T06:59:07.518Z,91.10
2023-03-21T07:00:07.503Z,90.79
2023-03-21T07:01:07.517Z,90.24
2023-03-21T07:02:07.531Z,90.34
2023-03-21T07:03:07.460Z,91.06
2023-03-21T07:04:07.457Z,91.63
2023-03-21T07:05:07.458Z,92.15
2023-03-21T07:06:07.440Z,93.13
2023-03-21T07:07:07.423Z,93.85
2023-03-21T07:08:07.411Z,93.75
2023-03-21T07:09:07.409Z,94.16
2023-03-21T07:10:07.388Z,94.68
2023-03-21T07:11:07.382Z,95.15
2023-03-21T07:12:07.369Z,95.41
2023-03-21T07:13:07.403Z,95.82
2023-03-21T07:14:07.348Z,96.54
2023-03-21T07:15:07.367Z,96.29
2023-03-21T07:16:07.353Z,96.29
2023-03-21T07:17:07.316Z,96.76
2023-03-21T07:18:07.309Z,97.79
2023-03-21T07:19:07.300Z,98.25
2023-03-21T07:20:07.288Z,98.97
2023-03-21T07:21:07.273Z,99.99
2023-03-21T07:22:07.265Z,99.18
2023-03-21T07:23:07.255Z,99.13
2023-03-21T07:24:07.245Z,98.92
2023-03-21T07:25:07.324Z,99.09
2023-03-21T07:26:07.269Z,98.98
2023-03-21T07:27:07.212Z,99.04
2023-03-21T07:28:07.205Z,98.93
2023-03-21T07:29:07.224Z,98.68
2023-03-21T07:30:07.181Z,98.27
2023-03-21T07:31:07.181Z,98.22
2023-03-21T07:32:07.162Z,98.73
2023-03-21T07:33:07.162Z,98.73
2023-03-21T07:34:07.151Z,98.83
2023-03-21T07:35:07.141Z,98.83
2023-03-21T07:36:07.189Z,98.83
2023-03-21T07:37:07.131Z,98.79
2023-03-21T07:38:07.152Z,98.79
2023-03-21T07:39:07.094Z,98.64
2023-03-21T07:40:07.078Z,98.69
2023-03-21T07:41:07.070Z,98.24
2023-03-21T07:42:07.060Z,97.88
2023-03-21T07:43:07.051Z,98.33
2023-03-21T07:45:07.053Z,98.68
2023-03-21T07:46:07.074Z,98.58
2023-03-21T07:47:07.020Z,98.99
2023-03-21T07:48:07.074Z,98.73
2023-03-21T07:49:06.986Z,98.73
2023-03-21T07:50:06.987Z,98.89
2023-03-21T07:51:06.961Z,98.68
2023-03-21T07:52:06.954Z,98.58
2023-03-21T07:53:06.944Z,98.95
2023-03-21T07:54:06.939Z,98.43
2023-03-21T07:55:06.928Z,98.33
2023-03-21T07:56:06.965Z,98.49
2023-03-21T07:57:06.907Z,98.34
2023-03-21T07:58:06.890Z,97.48
2023-03-21T07:59:06.880Z,96.35
2023-03-21T08:00:06.874Z,96.60
2023-03-21T08:01:06.891Z,97.67
2023-03-21T08:02:06.875Z,98.08
2023-03-21T08:03:06.909Z,98.29
2023-03-21T08:04:06.833Z,98.08
2023-03-21T08:05:06.824Z,98.02
2023-03-21T08:06:06.809Z,98.13
2023-03-21T08:07:06.806Z,98.33
2023-03-21T08:08:06.794Z,98.33
2023-03-21T08:09:06.785Z,98.18
2023-03-21T08:10:06.773Z,97.93
2023-03-21T08:11:06.764Z,97.27
2023-03-21T08:12:06.750Z,96.11
2023-03-21T08:13:06.741Z,95.19
2023-03-21T08:14:06.746Z,95.24
2023-03-21T08:15:06.743Z,92.19
2023-03-21T08:16:06.716Z,90.97
2023-03-21T08:17:06.790Z,92.24
2023-03-21T08:18:06.686Z,91.11
2023-03-21T08:19:06.691Z,91.32
2023-03-21T08:20:06.669Z,91.22
2023-03-21T08:21:09.329Z,91.11
2023-03-21T08:22:06.682Z,91.73
2023-03-21T08:23:06.635Z,90.11
2023-03-21T08:24:06.638Z,87.48
2023-03-21T08:25:06.612Z,84.59
2023-03-21T08:26:06.604Z,83.27
2023-03-21T08:27:06.595Z,85.00
2023-03-21T08:28:06.734Z,79.67
2023-03-21T08:29:06.579Z,77.63
2023-03-21T08:30:06.576Z,78.71
2023-03-21T08:31:06.751Z,75.39
2023-03-21T08:32:06.545Z,72.41
2023-03-21T08:33:06.565Z,70.65
2023-03-21T08:34:06.532Z,69.12
2023-03-21T08:35:06.534Z,69.47
2023-03-21T08:36:06.624Z,69.73
2023-03-21T08:37:06.496Z,69.00
2023-03-21T08:38:06.488Z,68.35
2023-03-21T08:39:06.507Z,65.48
2023-03-21T08:40:06.551Z,63.29
2023-03-21T08:41:06.460Z,61.64
2023-03-21T08:42:06.448Z,61.31
2023-03-21T08:43:06.445Z,59.36
2023-03-21T08:44:06.419Z,58.85
2023-03-21T08:45:06.416Z,60.43
2023-03-21T08:46:06.506Z,60.93
2023-03-21T08:47:06.390Z,60.91
2023-03-21T08:48:06.489Z,60.10
2023-03-21T08:49:06.397Z,62.58
2023-03-21T08:50:06.375Z,62.38
2023-03-21T08:51:06.370Z,61.95
2023-03-21T08:52:06.352Z,60.91
2023-03-21T08:53:06.337Z,61.41
2023-03-21T08:54:06.326Z,59.79
2023-03-21T08:55:06.317Z,59.94
2023-03-21T08:56:06.314Z,57.69
2023-03-21T08:57:06.297Z,57.86
2023-03-21T08:58:06.288Z,56.37
2023-03-21T08:59:06.276Z,55.16
2023-03-21T09:00:06.278Z,55.90
2023-03-21T09:01:06.267Z,58.30
2023-03-21T09:02:06.380Z,59.79
2023-03-21T09:03:06.253Z,58.42
2023-03-21T09:04:06.228Z,57.48
2023-03-21T09:05:06.258Z,57.41
2023-03-21T09:06:06.208Z,57.54
2023-03-21T09:07:06.276Z,58.22
2023-03-21T09:08:06.187Z,56.90
2023-03-21T09:09:06.179Z,99.99
2023-03-21T09:10:20.212Z,54.91
2023-03-21T09:11:07.181Z,54.60
2023-03-21T09:12:06.193Z,54.80
2023-03-21T09:13:06.150Z,55.97
2023-03-21T09:14:06.133Z,56.65
2023-03-21T09:15:06.117Z,56.50
2023-03-21T09:16:06.152Z,54.88
2023-03-21T09:17:06.104Z,58.42
2023-03-21T09:18:06.087Z,59.13
2023-03-21T09:19:06.079Z,57.44
2023-03-21T09:20:06.069Z,57.72
2023-03-21T09:21:06.081Z,56.75
2023-03-21T09:22:06.094Z,55.74
2023-03-21T09:23:06.053Z,54.78
2023-03-21T09:24:06.030Z,53.87
2023-03-21T09:25:06.020Z,53.74
2023-03-21T09:26:06.008Z,51.86
2023-03-21T09:27:06.011Z,51.83
2023-03-21T09:28:05.992Z,50.28
2023-03-21T09:29:06.064Z,49.87
2023-03-21T09:30:05.983Z,50.10
2023-03-21T09:31:05.998Z,50.07
2023-03-21T09:32:05.951Z,50.10
2023-03-21T09:33:05.940Z,50.22
2023-03-21T09:34:05.931Z,52.51
2023-03-21T09:35:05.960Z,53.67
2023-03-21T09:36:05.974Z,54.05
2023-03-21T09:37:05.926Z,52.86
2023-03-21T09:38:05.907Z,51.33
2023-03-21T09:39:05.880Z,51.68
2023-03-21T09:40:05.872Z,52.49
2023-03-21T09:41:05.864Z,50.45
2023-03-21T09:42:05.859Z,50.73
2023-03-21T09:43:05.848Z,50.42
2023-03-21T09:44:05.839Z,49.52
2023-03-21T09:45:05.825Z,48.34
2023-03-21T09:46:05.819Z,47.59
2023-03-21T09:47:05.856Z,47.64
2023-03-21T09:48:05.863Z,50.85
2023-03-21T09:49:05.788Z,52.33
2023-03-21T09:51:06.786Z,48.29
2023-03-21T09:52:05.757Z,48.24
2023-03-21T09:53:05.778Z,48.57
2023-03-21T09:54:05.739Z,49.82
2023-03-21T09:56:05.830Z,47.10
2023-03-21T09:57:05.730Z,45.55
2023-03-21T09:58:05.706Z,44.39
2023-03-21T09:59:05.692Z,46.66
2023-03-21T10:00:05.682Z,48.97
2023-03-21T10:01:05.746Z,47.76
2023-03-21T10:02:05.676Z,47.79
2023-03-21T10:03:05.656Z,46.31
2023-03-21T10:04:05.719Z,46.14
2023-03-21T10:05:05.636Z,44.23
2023-03-21T10:06:05.626Z,43.79
2023-03-21T10:07:05.621Z,42.77
2023-03-21T10:08:05.603Z,42.53
2023-03-21T10:09:05.621Z,42.53
2023-03-21T10:10:05.590Z,42.61
2023-03-21T10:11:05.579Z,43.29
2023-03-21T10:12:05.570Z,44.00
2023-03-21T10:13:05.563Z,43.27
2023-03-21T10:14:05.716Z,44.12
2023-03-21T10:15:05.542Z,47.74
2023-03-21T10:16:05.558Z,45.96
2023-03-21T10:17:05.520Z,44.21
2023-03-21T10:18:05.514Z,43.69
2023-03-21T10:19:05.500Z,44.15
2023-03-21T10:20:05.484Z,41.43
2023-03-21T10:21:05.476Z,40.83
2023-03-21T10:22:05.471Z,40.01
2023-03-21T10:23:05.455Z,38.61
2023-03-21T10:24:05.448Z,40.45
2023-03-21T10:25:05.463Z,41.77
2023-03-21T10:26:05.436Z,44.12
2023-03-21T10:27:05.570Z,44.26
2023-03-21T10:28:05.408Z,41.79
2023-03-21T10:29:05.460Z,40.83
2023-03-21T10:30:05.397Z,39.39
2023-03-21T10:31:05.372Z,38.27
2023-03-21T10:32:05.540Z,37.77
2023-03-21T10:33:05.513Z,37.07
2023-03-21T10:34:05.347Z,37.27
2023-03-21T10:35:05.458Z,38.85
2023-03-21T10:36:05.400Z,38.73
2023-03-21T10:37:05.497Z,37.84
2023-03-21T10:38:05.307Z,36.82
2023-03-21T10:39:05.294Z,36.50
2023-03-21T10:40:05.284Z,36.82
2023-03-21T10:41:05.357Z,37.84
2023-03-21T10:42:05.268Z,37.71
2023-03-21T10:43:05.258Z,38.01
2023-03-21T10:44:05.257Z,38.34
2023-03-21T10:45:05.237Z,38.72
2023-03-21T10:46:05.655Z,39.23
2023-03-21T10:47:05.410Z,39.33
2023-03-21T10:48:05.596Z,38.85
2023-03-21T10:49:05.225Z,39.45
2023-03-21T10:50:08.524Z,40.55
2023-03-21T10:51:05.182Z,40.77
2023-03-21T10:52:05.182Z,40.13
2023-03-21T10:53:05.156Z,41.33
2023-03-21T10:54:05.148Z,41.43
2023-03-21T10:55:05.139Z,41.03
2023-03-21T10:56:05.132Z,40.93
2023-03-21T10:57:05.145Z,40.41
2023-03-21T10:58:05.114Z,40.39
2023-03-21T10:59:05.105Z,39.55
2023-03-21T11:00:05.101Z,40.65
2023-03-21T11:01:05.202Z,40.05
2023-03-21T11:02:05.122Z,38.97
2023-03-21T11:03:05.064Z,39.49
2023-03-21T11:04:05.056Z,39.01
2023-03-21T11:05:05.052Z,39.81
2023-03-21T11:06:05.036Z,39.91
2023-03-21T11:07:05.027Z,41.11
2023-03-21T11:08:05.015Z,42.73
2023-03-21T11:09:05.014Z,43.93
2023-03-21T11:10:04.998Z,43.15
2023-03-21T11:11:05.007Z,46.06
2023-03-21T11:12:04.984Z,43.29
2023-03-21T11:13:05.004Z,42.77
2023-03-21T11:14:04.998Z,41.93
2023-03-21T11:15:04.956Z,41.19
2023-03-21T11:16:04.942Z,40.17
2023-03-21T11:17:05.077Z,39.83
2023-03-21T11:18:04.931Z,38.32
2023-03-21T11:19:04.920Z,38.30
2023-03-21T11:20:04.912Z,37.78
2023-03-21T11:21:04.900Z,39.28
2023-03-21T11:22:04.894Z,38.62
2023-03-21T11:23:04.890Z,39.81
2023-03-21T11:24:04.880Z,39.87
2023-03-21T11:25:04.861Z,41.89
2023-03-21T11:26:04.859Z,44.83
2023-03-21T11:27:04.863Z,47.37
2023-03-21T11:28:04.840Z,48.43
2023-03-21T11:29:04.856Z,46.33
2023-03-21T11:30:04.823Z,45.64
2023-03-21T11:31:04.905Z,42.03
2023-03-21T11:32:04.805Z,41.11
2023-03-21T11:33:04.794Z,40.73
2023-03-21T11:34:04.783Z,43.11
2023-03-21T11:35:04.780Z,44.46
2023-03-21T11:36:04.856Z,44.36
2023-03-21T11:37:04.756Z,47.86
2023-03-21T11:38:04.746Z,48.14
2023-03-21T11:39:04.736Z,46.47
2023-03-21T11:40:04.723Z,46.83
2023-03-21T11:41:04.715Z,44.50
2023-03-21T11:42:04.707Z,42.01
2023-03-21T11:43:04.701Z,40.27
2023-03-21T11:48:05.047Z,40.13
2023-03-21T11:48:06.537Z,37.82
2023-03-21T11:49:14.146Z,41.39
2023-03-21T12:40:39.668Z,40.43
2023-03-21T12:40:41.085Z,33.94
2023-03-21T12:41:41.071Z,35.26
2023-03-21T13:13:07.916Z,34.16
2023-03-21T13:19:41.350Z,36.68
2023-03-21T13:19:42.763Z,32.06
2023-03-21T13:37:01.489Z,33.45
2023-03-21T13:37:02.907Z,37.24
2023-03-21T13:38:02.903Z,37.18
2023-03-21T13:39:02.976Z,36.07
2023-03-21T13:40:02.890Z,38.31
2023-03-21T13:41:02.874Z,39.57
2023-03-21T13:42:02.863Z,38.53
2023-03-21T13:43:02.854Z,38.19
2023-03-21T13:44:02.857Z,39.86
2023-03-21T13:45:02.842Z,42.75
2023-03-21T13:54:57.820Z,43.34
2023-03-21T13:54:59.233Z,36.45
2023-03-21T13:59:05.598Z,36.32
2023-03-21T13:59:07.023Z,35.83
2023-03-21T14:00:07.014Z,38.12
2023-03-21T14:01:07.054Z,39.03
2023-03-21T14:02:13.954Z,38.80
2023-03-21T14:37:40.988Z,37.35
2023-03-21T14:37:47.191Z,34.97
2023-03-21T14:38:42.443Z,36.05
2023-03-21T14:39:42.385Z,35.72
2023-03-21T14:40:42.377Z,34.54
2023-03-21T14:41:42.366Z,36.95
2023-03-21T14:42:42.365Z,38.69
2023-03-21T14:47:19.627Z,39.23
2023-03-21T14:47:21.039Z,38.99
2023-03-21T14:48:21.071Z,38.85
2023-03-21T14:49:21.026Z,37.60
2023-03-21T14:50:21.013Z,36.02
2023-03-21T14:51:20.999Z,38.73
2023-03-21T14:55:41.634Z,40.36
2023-03-21T14:55:43.061Z,40.83
2023-03-21T14:56:43.048Z,39.17
2023-03-21T14:57:43.040Z,38.34
2023-03-21T14:59:22.777Z,37.56
2023-03-21T14:59:43.044Z,38.69
2023-03-21T15:00:43.061Z,39.87
2023-03-21T15:01:43.077Z,37.73
2023-03-21T15:02:43.072Z,37.30
2023-03-21T15:03:42.981Z,36.92
2023-03-21T15:04:43.036Z,37.49
2023-03-21T15:05:42.964Z,38.95
2023-03-21T15:06:42.954Z,39.33
2023-03-21T15:07:42.957Z,39.88
2023-03-21T15:08:42.935Z,39.45
2023-03-21T15:09:42.929Z,39.42
2023-03-21T15:10:42.917Z,38.89
2023-03-21T15:11:43.028Z,38.17
2023-03-21T15:12:42.898Z,38.34
2023-03-21T15:13:42.904Z,36.52
2023-03-21T15:14:42.876Z,36.24
2023-03-21T15:15:43.275Z,36.52
2023-03-21T15:16:42.856Z,37.38
2023-03-21T15:17:42.853Z,35.60
2023-03-21T15:18:42.859Z,37.32
2023-03-21T15:19:42.825Z,37.89
2023-03-21T15:20:42.843Z,40.72
2023-03-21T15:21:42.810Z,41.63
2023-03-21T15:22:42.804Z,42.21
2023-03-21T15:23:42.791Z,41.19
2023-03-21T15:24:42.817Z,40.57
2023-03-21T15:25:42.769Z,42.33
2023-03-21T15:26:42.767Z,42.21
2023-03-21T15:27:42.876Z,41.41
2023-03-21T15:28:42.743Z,41.99
2023-03-21T15:29:42.734Z,42.57
2023-03-21T15:30:42.726Z,43.76